sensor_id;sensor_type;location;lat;lon;timestamp;temperature;humidity
67974;DHT22;54756;51.140;6.952;2023-09-18T00:01:31;21.40;99.90
67974;DHT22;54756;51.140;6.952;2023-09-18T00:03:31;21.40;99.90
67974;DHT22;54756;51.140;6.952;2023-09-18T00:05:32;21.30;99.90
67974;DHT22;54756;51.140;6.952;2023-09-18T00:07:32;21.30;99.90
67974;DHT22;54756;51.140;6.952;2023-09-18T00:09:33;21.30;99.90
67974;DHT22;54756;51.140;6.952;2023-09-18T00:11:34;21.30;99.90
67974;DHT22;54756;51.140;6.952;2023-09-18T00:13:35;21.30;99.90
67974;DHT22;54756;51.140;6.952;2023-09-18T00:15:35;21.20;99.90
67974;DHT22;54756;51.140;6.952;2023-09-18T00:17:37;21.20;99.90
67974;DHT22;54756;51.140;6.952;2023-09-18T00:19:38;21.20;99.90
67974;DHT22;54756;51.140;6.952;2023-09-18T00:21:38;21.20;99.90
67974;DHT22;54756;51.140;6.952;2023-09-18T00:23:39;21.20;99.90
67974;DHT22;54756;51.140;6.952;2023-09-18T00:25:39;21.10;99.90
67974;DHT22;54756;51.140;6.952;2023-09-18T00:27:42;21.10;99.90
67974;DHT22;54756;51.140;6.952;2023-09-18T00:29:43;21.10;99.90
67974;DHT22;54756;51.140;6.952;2023-09-18T00:31:44;21.10;99.90
67974;DHT22;54756;51.140;6.952;2023-09-18T00:33:45;21.10;99.90
67974;DHT22;54756;51.140;6.952;2023-09-18T00:35:49;21.10;99.90
67974;DHT22;54756;51.140;6.952;2023-09-18T00:37:50;21.00;99.90
67974;DHT22;54756;51.140;6.952;2023-09-18T00:39:50;21.00;99.90
67974;DHT22;54756;51.140;6.952;2023-09-18T00:41:51;21.00;99.90
67974;DHT22;54756;51.140;6.952;2023-09-18T00:43:54;21.00;99.90
67974;DHT22;54756;51.140;6.952;2023-09-18T00:45:54;21.00;99.90
67974;DHT22;54756;51.140;6.952;2023-09-18T00:47:55;21.00;99.90
67974;DHT22;54756;51.140;6.952;2023-09-18T00:49:56;21.00;99.90
67974;DHT22;54756;51.140;6.952;2023-09-18T00:51:57;20.90;99.90
67974;DHT22;54756;51.140;6.952;2023-09-18T00:53:57;20.90;99.90
67974;DHT22;54756;51.140;6.952;2023-09-18T00:56:00;20.90;99.90
67974;DHT22;54756;51.140;6.952;2023-09-18T00:58:01;20.90;99.90
67974;DHT22;54756;51.140;6.952;2023-09-18T01:00:03;20.90;99.90
67974;DHT22;54756;51.140;6.952;2023-09-18T01:02:05;20.90;99.90
67974;DHT22;54756;51.140;6.952;2023-09-18T01:04:07;20.90;99.90
67974;DHT22;54756;51.140;6.952;2023-09-18T01:06:07;20.90;99.90
67974;DHT22;54756;51.140;6.952;2023-09-18T01:08:08;20.90;99.90
67974;DHT22;54756;51.140;6.952;2023-09-18T01:10:09;20.90;99.90
67974;DHT22;54756;51.140;6.952;2023-09-18T01:12:27;21.00;99.90
67974;DHT22;54756;51.140;6.952;2023-09-18T01:14:49;21.00;99.90
67974;DHT22;54756;51.140;6.952;2023-09-18T01:16:58;21.00;99.90
67974;DHT22;54756;51.140;6.952;2023-09-18T01:19:00;21.00;99.90
67974;DHT22;54756;51.140;6.952;2023-09-18T01:21:03;21.00;99.90
67974;DHT22;54756;51.140;6.952;2023-09-18T01:23:04;21.00;99.90
67974;DHT22;54756;51.140;6.952;2023-09-18T01:25:04;21.00;99.90
67974;DHT22;54756;51.140;6.952;2023-09-18T01:27:10;21.00;99.90
67974;DHT22;54756;51.140;6.952;2023-09-18T01:29:11;21.00;99.90
67974;DHT22;54756;51.140;6.952;2023-09-18T01:31:11;21.00;99.90
67974;DHT22;54756;51.140;6.952;2023-09-18T01:33:12;21.10;99.90
67974;DHT22;54756;51.140;6.952;2023-09-18T01:35:14;21.10;99.90
67974;DHT22;54756;51.140;6.952;2023-09-18T01:37:23;21.10;99.90
67974;DHT22;54756;51.140;6.952;2023-09-18T01:39:24;21.10;99.90
67974;DHT22;54756;51.140;6.952;2023-09-18T01:41:27;21.10;99.90
67974;DHT22;54756;51.140;6.952;2023-09-18T01:43:28;21.10;99.90
67974;DHT22;54756;51.140;6.952;2023-09-18T01:45:29;21.10;99.90
67974;DHT22;54756;51.140;6.952;2023-09-18T01:47:29;21.10;99.90
67974;DHT22;54756;51.140;6.952;2023-09-18T01:49:33;21.20;99.90
67974;DHT22;54756;51.140;6.952;2023-09-18T01:51:34;21.20;99.90
67974;DHT22;54756;51.140;6.952;2023-09-18T01:53:35;21.20;99.90
67974;DHT22;54756;51.140;6.952;2023-09-18T01:55:35;21.20;99.90
67974;DHT22;54756;51.140;6.952;2023-09-18T01:57:36;21.20;99.90
67974;DHT22;54756;51.140;6.952;2023-09-18T01:59:36;21.20;99.90
67974;DHT22;54756;51.140;6.952;2023-09-18T02:01:37;21.20;99.90
67974;DHT22;54756;51.140;6.952;2023-09-18T02:03:38;21.20;99.90
67974;DHT22;54756;51.140;6.952;2023-09-18T02:05:42;21.20;99.90
67974;DHT22;54756;51.140;6.952;2023-09-18T02:07:42;21.20;99.90
67974;DHT22;54756;51.140;6.952;2023-09-18T02:09:43;21.10;99.90
67974;DHT22;54756;51.140;6.952;2023-09-18T02:11:45;21.10;99.90
67974;DHT22;54756;51.140;6.952;2023-09-18T02:13:46;21.10;99.90
67974;DHT22;54756;51.140;6.952;2023-09-18T02:15:47;21.10;99.90
67974;DHT22;54756;51.140;6.952;2023-09-18T02:17:47;21.00;99.90
67974;DHT22;54756;51.140;6.952;2023-09-18T02:19:48;21.00;99.90
67974;DHT22;54756;51.140;6.952;2023-09-18T02:21:48;21.00;99.90
67974;DHT22;54756;51.140;6.952;2023-09-18T02:23:50;21.00;99.90
67974;DHT22;54756;51.140;6.952;2023-09-18T02:25:57;21.00;99.90
67974;DHT22;54756;51.140;6.952;2023-09-18T02:27:58;21.00;99.90
67974;DHT22;54756;51.140;6.952;2023-09-18T02:29:58;21.00;99.90
67974;DHT22;54756;51.140;6.952;2023-09-18T02:31:59;21.00;99.90
67974;DHT22;54756;51.140;6.952;2023-09-18T02:34:00;21.00;99.90
67974;DHT22;54756;51.140;6.952;2023-09-18T02:36:00;21.00;99.90
67974;DHT22;54756;51.140;6.952;2023-09-18T02:38:01;21.10;99.90
67974;DHT22;54756;51.140;6.952;2023-09-18T02:40:03;21.10;99.90
67974;DHT22;54756;51.140;6.952;2023-09-18T02:42:05;21.10;99.90
67974;DHT22;54756;51.140;6.952;2023-09-18T02:44:06;21.10;99.90
67974;DHT22;54756;51.140;6.952;2023-09-18T02:46:07;21.10;99.90
67974;DHT22;54756;51.140;6.952;2023-09-18T02:48:08;21.10;99.90
67974;DHT22;54756;51.140;6.952;2023-09-18T02:50:08;21.10;99.90
67974;DHT22;54756;51.140;6.952;2023-09-18T02:52:11;21.20;99.90
67974;DHT22;54756;51.140;6.952;2023-09-18T02:54:11;21.20;99.90
67974;DHT22;54756;51.140;6.952;2023-09-18T02:56:12;21.20;99.90
67974;DHT22;54756;51.140;6.952;2023-09-18T02:58:12;21.20;99.90
67974;DHT22;54756;51.140;6.952;2023-09-18T03:00:13;21.30;99.90
67974;DHT22;54756;51.140;6.952;2023-09-18T03:02:14;21.30;99.90
67974;DHT22;54756;51.140;6.952;2023-09-18T03:04:14;21.30;99.90
67974;DHT22;54756;51.140;6.952;2023-09-18T03:06:15;21.40;99.90
67974;DHT22;54756;51.140;6.952;2023-09-18T03:08:16;21.40;99.90
67974;DHT22;54756;51.140;6.952;2023-09-18T03:10:17;21.40;99.90
67974;DHT22;54756;51.140;6.952;2023-09-18T03:12:18;21.40;99.90
67974;DHT22;54756;51.140;6.952;2023-09-18T03:14:19;21.40;99.90
67974;DHT22;54756;51.140;6.952;2023-09-18T03:16:19;21.40;99.90
67974;DHT22;54756;51.140;6.952;2023-09-18T03:18:20;21.50;99.90
67974;DHT22;54756;51.140;6.952;2023-09-18T03:20:25;21.50;99.90
67974;DHT22;54756;51.140;6.952;2023-09-18T03:22:26;21.50;99.90
67974;DHT22;54756;51.140;6.952;2023-09-18T03:24:27;21.50;99.90
67974;DHT22;54756;51.140;6.952;2023-09-18T03:26:28;21.50;99.90
67974;DHT22;54756;51.140;6.952;2023-09-18T03:28:28;21.50;99.90
67974;DHT22;54756;51.140;6.952;2023-09-18T03:30:29;21.50;99.90
67974;DHT22;54756;51.140;6.952;2023-09-18T03:32:30;21.60;99.90
67974;DHT22;54756;51.140;6.952;2023-09-18T03:34:31;21.60;99.90
67974;DHT22;54756;51.140;6.952;2023-09-18T03:36:31;21.60;99.90
67974;DHT22;54756;51.140;6.952;2023-09-18T03:38:33;21.60;99.90
67974;DHT22;54756;51.140;6.952;2023-09-18T03:40:35;21.60;99.90
67974;DHT22;54756;51.140;6.952;2023-09-18T03:42:36;21.60;99.90
67974;DHT22;54756;51.140;6.952;2023-09-18T03:44:37;21.60;99.90
67974;DHT22;54756;51.140;6.952;2023-09-18T03:46:37;21.60;99.90
67974;DHT22;54756;51.140;6.952;2023-09-18T03:48:38;21.60;99.90
67974;DHT22;54756;51.140;6.952;2023-09-18T03:50:39;21.60;99.90
67974;DHT22;54756;51.140;6.952;2023-09-18T03:52:40;21.60;99.90
67974;DHT22;54756;51.140;6.952;2023-09-18T03:54:40;21.60;99.90
67974;DHT22;54756;51.140;6.952;2023-09-18T03:56:41;21.60;99.90
67974;DHT22;54756;51.140;6.952;2023-09-18T03:58:41;21.60;99.90
67974;DHT22;54756;51.140;6.952;2023-09-18T04:00:42;21.60;99.90
67974;DHT22;54756;51.140;6.952;2023-09-18T04:02:42;21.60;99.90
67974;DHT22;54756;51.140;6.952;2023-09-18T04:04:43;21.60;99.90
67974;DHT22;54756;51.140;6.952;2023-09-18T04:06:44;21.60;99.90
67974;DHT22;54756;51.140;6.952;2023-09-18T04:08:46;21.60;99.90
67974;DHT22;54756;51.140;6.952;2023-09-18T04:10:47;21.60;99.90
67974;DHT22;54756;51.140;6.952;2023-09-18T04:12:48;21.50;99.90
67974;DHT22;54756;51.140;6.952;2023-09-18T04:14:50;21.60;99.90
67974;DHT22;54756;51.140;6.952;2023-09-18T04:16:51;21.50;99.90
67974;DHT22;54756;51.140;6.952;2023-09-18T04:18:52;21.60;99.90
67974;DHT22;54756;51.140;6.952;2023-09-18T04:20:52;21.50;99.90
67974;DHT22;54756;51.140;6.952;2023-09-18T04:23:21;21.50;99.90
67974;DHT22;54756;51.140;6.952;2023-09-18T04:25:22;21.60;99.90
67974;DHT22;54756;51.140;6.952;2023-09-18T04:27:22;21.60;99.90
67974;DHT22;54756;51.140;6.952;2023-09-18T04:29:23;21.50;99.90
67974;DHT22;54756;51.140;6.952;2023-09-18T04:31:24;21.60;99.90
67974;DHT22;54756;51.140;6.952;2023-09-18T04:33:24;21.50;99.90
67974;DHT22;54756;51.140;6.952;2023-09-18T04:35:25;21.60;99.90
67974;DHT22;54756;51.140;6.952;2023-09-18T04:37:26;21.60;99.90
67974;DHT22;54756;51.140;6.952;2023-09-18T04:39:26;21.50;99.90
67974;DHT22;54756;51.140;6.952;2023-09-18T04:41:30;21.60;99.90
67974;DHT22;54756;51.140;6.952;2023-09-18T04:43:30;21.60;99.90
67974;DHT22;54756;51.140;6.952;2023-09-18T04:45:31;21.60;99.90
67974;DHT22;54756;51.140;6.952;2023-09-18T04:47:32;21.50;99.90
67974;DHT22;54756;51.140;6.952;2023-09-18T04:49:33;21.60;99.90
67974;DHT22;54756;51.140;6.952;2023-09-18T04:51:33;21.50;99.90
67974;DHT22;54756;51.140;6.952;2023-09-18T04:53:34;21.50;99.90
67974;DHT22;54756;51.140;6.952;2023-09-18T04:55:34;21.50;99.90
67974;DHT22;54756;51.140;6.952;2023-09-18T04:57:35;21.50;99.90
67974;DHT22;54756;51.140;6.952;2023-09-18T04:59:36;21.50;99.90
67974;DHT22;54756;51.140;6.952;2023-09-18T05:01:36;21.50;99.90
67974;DHT22;54756;51.140;6.952;2023-09-18T05:03:37;21.50;99.90
67974;DHT22;54756;51.140;6.952;2023-09-18T05:05:37;21.50;99.90
67974;DHT22;54756;51.140;6.952;2023-09-18T05:07:38;21.50;99.90
67974;DHT22;54756;51.140;6.952;2023-09-18T05:09:38;21.50;99.90
67974;DHT22;54756;51.140;6.952;2023-09-18T05:11:41;21.50;99.90
67974;DHT22;54756;51.140;6.952;2023-09-18T05:13:42;21.50;99.90
67974;DHT22;54756;51.140;6.952;2023-09-18T05:15:42;21.50;99.90
67974;DHT22;54756;51.140;6.952;2023-09-18T05:17:46;21.50;99.90
67974;DHT22;54756;51.140;6.952;2023-09-18T05:19:47;21.50;99.90
67974;DHT22;54756;51.140;6.952;2023-09-18T05:21:48;21.50;99.90
67974;DHT22;54756;51.140;6.952;2023-09-18T05:23:48;21.50;99.90
67974;DHT22;54756;51.140;6.952;2023-09-18T05:25:49;21.50;99.90
67974;DHT22;54756;51.140;6.952;2023-09-18T05:27:50;21.50;99.90
67974;DHT22;54756;51.140;6.952;2023-09-18T05:29:56;21.50;99.90
67974;DHT22;54756;51.140;6.952;2023-09-18T05:31:56;21.50;99.90
67974;DHT22;54756;51.140;6.952;2023-09-18T05:33:58;21.50;99.90
67974;DHT22;54756;51.140;6.952;2023-09-18T05:35:59;21.50;99.90
67974;DHT22;54756;51.140;6.952;2023-09-18T05:37:59;21.50;99.90
67974;DHT22;54756;51.140;6.952;2023-09-18T05:40:00;21.50;99.90
67974;DHT22;54756;51.140;6.952;2023-09-18T05:42:01;21.50;99.90
67974;DHT22;54756;51.140;6.952;2023-09-18T05:44:01;21.40;99.90
67974;DHT22;54756;51.140;6.952;2023-09-18T05:46:04;21.40;99.90
67974;DHT22;54756;51.140;6.952;2023-09-18T05:48:04;21.40;99.90
67974;DHT22;54756;51.140;6.952;2023-09-18T05:50:06;21.40;99.90
67974;DHT22;54756;51.140;6.952;2023-09-18T05:52:07;21.40;99.90
67974;DHT22;54756;51.140;6.952;2023-09-18T05:54:08;21.40;99.90
67974;DHT22;54756;51.140;6.952;2023-09-18T05:56:09;21.30;99.90
67974;DHT22;54756;51.140;6.952;2023-09-18T05:58:10;21.40;99.90
67974;DHT22;54756;51.140;6.952;2023-09-18T06:00:11;21.40;99.90
67974;DHT22;54756;51.140;6.952;2023-09-18T06:02:13;21.40;99.90
67974;DHT22;54756;51.140;6.952;2023-09-18T06:04:13;21.40;99.90
67974;DHT22;54756;51.140;6.952;2023-09-18T06:06:14;21.40;99.90
67974;DHT22;54756;51.140;6.952;2023-09-18T06:08:14;21.40;99.90
67974;DHT22;54756;51.140;6.952;2023-09-18T06:10:15;21.40;99.90
67974;DHT22;54756;51.140;6.952;2023-09-18T06:12:17;21.40;99.90
67974;DHT22;54756;51.140;6.952;2023-09-18T06:14:17;21.40;99.90
67974;DHT22;54756;51.140;6.952;2023-09-18T06:16:18;21.40;99.90
67974;DHT22;54756;51.140;6.952;2023-09-18T06:18:18;21.40;99.90
67974;DHT22;54756;51.140;6.952;2023-09-18T06:20:21;21.40;99.90
67974;DHT22;54756;51.140;6.952;2023-09-18T06:22:22;21.40;99.90
67974;DHT22;54756;51.140;6.952;2023-09-18T06:24:23;21.50;99.90
67974;DHT22;54756;51.140;6.952;2023-09-18T06:26:23;21.40;99.90
67974;DHT22;54756;51.140;6.952;2023-09-18T06:28:24;21.50;99.90
67974;DHT22;54756;51.140;6.952;2023-09-18T06:30:24;21.50;99.90
67974;DHT22;54756;51.140;6.952;2023-09-18T06:32:25;21.50;99.90
67974;DHT22;54756;51.140;6.952;2023-09-18T06:34:26;21.50;99.90
67974;DHT22;54756;51.140;6.952;2023-09-18T06:36:26;21.50;99.90
67974;DHT22;54756;51.140;6.952;2023-09-18T06:38:27;21.50;99.90
67974;DHT22;54756;51.140;6.952;2023-09-18T06:40:28;21.50;99.90
67974;DHT22;54756;51.140;6.952;2023-09-18T06:42:28;21.50;99.90
67974;DHT22;54756;51.140;6.952;2023-09-18T06:44:29;21.60;99.90
67974;DHT22;54756;51.140;6.952;2023-09-18T06:46:30;21.60;99.90
67974;DHT22;54756;51.140;6.952;2023-09-18T06:48:30;21.50;99.90
67974;DHT22;54756;51.140;6.952;2023-09-18T06:50:32;21.60;99.90
67974;DHT22;54756;51.140;6.952;2023-09-18T06:52:33;21.60;99.90
67974;DHT22;54756;51.140;6.952;2023-09-18T06:54:34;21.60;99.90
67974;DHT22;54756;51.140;6.952;2023-09-18T06:56:34;21.60;99.90
67974;DHT22;54756;51.140;6.952;2023-09-18T06:58:35;21.60;99.90
67974;DHT22;54756;51.140;6.952;2023-09-18T07:00:36;21.70;99.90
67974;DHT22;54756;51.140;6.952;2023-09-18T07:02:37;21.70;99.90
67974;DHT22;54756;51.140;6.952;2023-09-18T07:04:37;21.70;99.90
67974;DHT22;54756;51.140;6.952;2023-09-18T07:06:45;21.70;99.90
67974;DHT22;54756;51.140;6.952;2023-09-18T07:08:46;21.70;99.90
67974;DHT22;54756;51.140;6.952;2023-09-18T07:10:50;21.70;99.90
67974;DHT22;54756;51.140;6.952;2023-09-18T07:12:51;21.70;99.90
67974;DHT22;54756;51.140;6.952;2023-09-18T07:14:51;21.80;99.90
67974;DHT22;54756;51.140;6.952;2023-09-18T07:16:52;21.80;99.90
67974;DHT22;54756;51.140;6.952;2023-09-18T07:18:52;21.80;99.90
67974;DHT22;54756;51.140;6.952;2023-09-18T07:20:53;21.80;99.90
67974;DHT22;54756;51.140;6.952;2023-09-18T07:22:53;21.80;99.90
67974;DHT22;54756;51.140;6.952;2023-09-18T07:24:54;21.80;99.90
67974;DHT22;54756;51.140;6.952;2023-09-18T07:26:54;21.90;99.90
67974;DHT22;54756;51.140;6.952;2023-09-18T07:28:55;21.90;99.90
67974;DHT22;54756;51.140;6.952;2023-09-18T07:30:55;21.90;99.90
67974;DHT22;54756;51.140;6.952;2023-09-18T07:32:56;22.00;99.90
67974;DHT22;54756;51.140;6.952;2023-09-18T07:34:58;22.00;99.90
67974;DHT22;54756;51.140;6.952;2023-09-18T07:36:58;22.00;99.90
67974;DHT22;54756;51.140;6.952;2023-09-18T07:38:59;22.00;99.90
67974;DHT22;54756;51.140;6.952;2023-09-18T07:40:59;22.10;99.90
67974;DHT22;54756;51.140;6.952;2023-09-18T07:43:00;22.10;99.90
67974;DHT22;54756;51.140;6.952;2023-09-18T07:45:02;22.10;99.90
67974;DHT22;54756;51.140;6.952;2023-09-18T07:47:03;22.10;99.90
67974;DHT22;54756;51.140;6.952;2023-09-18T07:49:04;22.10;99.90
67974;DHT22;54756;51.140;6.952;2023-09-18T07:51:04;22.10;99.90
67974;DHT22;54756;51.140;6.952;2023-09-18T07:53:05;22.10;99.90
67974;DHT22;54756;51.140;6.952;2023-09-18T07:55:06;22.20;99.90
67974;DHT22;54756;51.140;6.952;2023-09-18T07:57:07;22.10;99.90
67974;DHT22;54756;51.140;6.952;2023-09-18T07:59:09;22.20;99.90
67974;DHT22;54756;51.140;6.952;2023-09-18T08:01:11;22.20;99.90
67974;DHT22;54756;51.140;6.952;2023-09-18T08:03:12;22.20;99.90
67974;DHT22;54756;51.140;6.952;2023-09-18T08:05:12;22.30;99.90
67974;DHT22;54756;51.140;6.952;2023-09-18T08:07:14;22.30;99.90
67974;DHT22;54756;51.140;6.952;2023-09-18T08:09:14;22.30;99.90
67974;DHT22;54756;51.140;6.952;2023-09-18T08:11:15;22.30;99.90
67974;DHT22;54756;51.140;6.952;2023-09-18T08:13:16;22.30;99.90
67974;DHT22;54756;51.140;6.952;2023-09-18T08:15:19;22.30;99.90
67974;DHT22;54756;51.140;6.952;2023-09-18T08:17:20;22.30;99.90
67974;DHT22;54756;51.140;6.952;2023-09-18T08:19:20;22.30;99.90
67974;DHT22;54756;51.140;6.952;2023-09-18T08:21:21;22.30;99.90
67974;DHT22;54756;51.140;6.952;2023-09-18T08:23:24;22.30;99.90
67974;DHT22;54756;51.140;6.952;2023-09-18T08:25:25;22.30;99.90
67974;DHT22;54756;51.140;6.952;2023-09-18T08:27:25;22.30;99.90
67974;DHT22;54756;51.140;6.952;2023-09-18T08:29:26;22.30;99.90
67974;DHT22;54756;51.140;6.952;2023-09-18T08:31:26;22.30;99.90
67974;DHT22;54756;51.140;6.952;2023-09-18T08:33:27;22.30;99.90
67974;DHT22;54756;51.140;6.952;2023-09-18T08:35:28;22.30;99.90
67974;DHT22;54756;51.140;6.952;2023-09-18T08:37:30;22.30;99.90
67974;DHT22;54756;51.140;6.952;2023-09-18T08:39:31;22.30;99.90
67974;DHT22;54756;51.140;6.952;2023-09-18T08:41:33;22.30;99.90
67974;DHT22;54756;51.140;6.952;2023-09-18T08:43:37;22.40;99.90
67974;DHT22;54756;51.140;6.952;2023-09-18T08:45:52;22.40;99.90
67974;DHT22;54756;51.140;6.952;2023-09-18T08:47:54;22.40;99.90
67974;DHT22;54756;51.140;6.952;2023-09-18T08:49:55;22.40;99.90
67974;DHT22;54756;51.140;6.952;2023-09-18T08:51:57;22.40;99.90
67974;DHT22;54756;51.140;6.952;2023-09-18T08:54:00;22.40;99.90
67974;DHT22;54756;51.140;6.952;2023-09-18T08:56:02;22.40;99.90
67974;DHT22;54756;51.140;6.952;2023-09-18T08:58:05;22.40;99.90
67974;DHT22;54756;51.140;6.952;2023-09-18T09:00:06;22.50;99.90
67974;DHT22;54756;51.140;6.952;2023-09-18T09:02:08;22.50;99.90
67974;DHT22;54756;51.140;6.952;2023-09-18T09:04:12;22.50;99.90
67974;DHT22;54756;51.140;6.952;2023-09-18T09:06:13;22.50;99.90
67974;DHT22;54756;51.140;6.952;2023-09-18T09:08:13;22.50;99.90
67974;DHT22;54756;51.140;6.952;2023-09-18T09:10:15;22.60;99.90
67974;DHT22;54756;51.140;6.952;2023-09-18T09:12:16;22.60;99.90
67974;DHT22;54756;51.140;6.952;2023-09-18T09:14:17;22.60;99.90
67974;DHT22;54756;51.140;6.952;2023-09-18T09:16:19;22.60;99.90
67974;DHT22;54756;51.140;6.952;2023-09-18T09:18:19;22.70;99.90
67974;DHT22;54756;51.140;6.952;2023-09-18T09:20:20;22.60;99.90
67974;DHT22;54756;51.140;6.952;2023-09-18T09:22:21;22.60;99.90
67974;DHT22;54756;51.140;6.952;2023-09-18T09:26:36;22.60;99.90
67974;DHT22;54756;51.140;6.952;2023-09-18T09:28:37;22.60;99.90
67974;DHT22;54756;51.140;6.952;2023-09-18T09:30:37;22.60;99.90
67974;DHT22;54756;51.140;6.952;2023-09-18T09:32:38;22.60;99.90
67974;DHT22;54756;51.140;6.952;2023-09-18T09:34:41;22.70;99.90
67974;DHT22;54756;51.140;6.952;2023-09-18T09:36:55;22.70;99.90
67974;DHT22;54756;51.140;6.952;2023-09-18T09:38:57;22.70;99.90
67974;DHT22;54756;51.140;6.952;2023-09-18T09:40:58;22.80;99.90
67974;DHT22;54756;51.140;6.952;2023-09-18T09:43:02;22.80;99.90
67974;DHT22;54756;51.140;6.952;2023-09-18T09:45:07;22.80;99.90
67974;DHT22;54756;51.140;6.952;2023-09-18T09:47:12;22.80;99.90
67974;DHT22;54756;51.140;6.952;2023-09-18T09:49:14;22.80;99.90
67974;DHT22;54756;51.140;6.952;2023-09-18T09:51:17;22.80;99.90
67974;DHT22;54756;51.140;6.952;2023-09-18T09:53:47;22.80;99.90
67974;DHT22;54756;51.140;6.952;2023-09-18T09:55:54;22.80;99.90
67974;DHT22;54756;51.140;6.952;2023-09-18T09:58:06;22.80;99.90
67974;DHT22;54756;51.140;6.952;2023-09-18T10:00:07;22.80;99.90
67974;DHT22;54756;51.140;6.952;2023-09-18T10:02:23;22.80;99.90
67974;DHT22;54756;51.140;6.952;2023-09-18T10:04:26;22.90;99.90
67974;DHT22;54756;51.140;6.952;2023-09-18T10:06:28;22.90;99.90
67974;DHT22;54756;51.140;6.952;2023-09-18T10:08:31;22.90;99.90
67974;DHT22;54756;51.140;6.952;2023-09-18T10:10:36;22.90;99.90
67974;DHT22;54756;51.140;6.952;2023-09-18T10:12:38;22.90;99.90
67974;DHT22;54756;51.140;6.952;2023-09-18T10:14:40;22.90;99.90
67974;DHT22;54756;51.140;6.952;2023-09-18T10:16:51;22.90;99.90
67974;DHT22;54756;51.140;6.952;2023-09-18T10:19:02;22.90;99.90
67974;DHT22;54756;51.140;6.952;2023-09-18T10:21:14;22.90;99.90
67974;DHT22;54756;51.140;6.952;2023-09-18T10:23:40;22.90;99.90
67974;DHT22;54756;51.140;6.952;2023-09-18T10:25:45;22.90;99.90
67974;DHT22;54756;51.140;6.952;2023-09-18T10:27:47;22.90;99.90
67974;DHT22;54756;51.140;6.952;2023-09-18T10:29:54;22.90;99.90
67974;DHT22;54756;51.140;6.952;2023-09-18T10:31:56;22.90;99.90
67974;DHT22;54756;51.140;6.952;2023-09-18T10:33:57;22.90;99.90
67974;DHT22;54756;51.140;6.952;2023-09-18T10:36:00;22.90;99.90
67974;DHT22;54756;51.140;6.952;2023-09-18T10:38:02;22.90;99.90
67974;DHT22;54756;51.140;6.952;2023-09-18T10:40:06;22.90;99.90
67974;DHT22;54756;51.140;6.952;2023-09-18T10:42:09;23.00;99.90
67974;DHT22;54756;51.140;6.952;2023-09-18T10:44:11;23.00;99.90
67974;DHT22;54756;51.140;6.952;2023-09-18T10:46:12;23.10;99.90
67974;DHT22;54756;51.140;6.952;2023-09-18T10:48:14;23.10;99.90
67974;DHT22;54756;51.140;6.952;2023-09-18T10:50:26;23.10;99.90
67974;DHT22;54756;51.140;6.952;2023-09-18T10:52:27;23.20;99.90
67974;DHT22;54756;51.140;6.952;2023-09-18T10:54:30;23.20;99.90
67974;DHT22;54756;51.140;6.952;2023-09-18T10:56:31;23.20;99.90
67974;DHT22;54756;51.140;6.952;2023-09-18T10:58:33;23.20;99.90
67974;DHT22;54756;51.140;6.952;2023-09-18T11:00:41;23.20;99.90
67974;DHT22;54756;51.140;6.952;2023-09-18T11:02:42;23.20;99.90
67974;DHT22;54756;51.140;6.952;2023-09-18T11:04:44;23.20;99.90
67974;DHT22;54756;51.140;6.952;2023-09-18T11:09:03;23.20;99.90
67974;DHT22;54756;51.140;6.952;2023-09-18T11:11:09;23.20;99.90
67974;DHT22;54756;51.140;6.952;2023-09-18T11:13:29;23.30;99.90
67974;DHT22;54756;51.140;6.952;2023-09-18T11:15:33;23.30;99.90
67974;DHT22;54756;51.140;6.952;2023-09-18T11:17:38;23.30;99.90
67974;DHT22;54756;51.140;6.952;2023-09-18T11:19:41;23.40;99.90
67974;DHT22;54756;51.140;6.952;2023-09-18T11:21:43;23.40;99.90
67974;DHT22;54756;51.140;6.952;2023-09-18T11:23:44;23.40;99.90
67974;DHT22;54756;51.140;6.952;2023-09-18T11:25:44;23.50;99.90
67974;DHT22;54756;51.140;6.952;2023-09-18T11:27:53;23.60;99.90
67974;DHT22;54756;51.140;6.952;2023-09-18T11:29:57;23.60;99.90
67974;DHT22;54756;51.140;6.952;2023-09-18T11:31:59;23.60;99.90
67974;DHT22;54756;51.140;6.952;2023-09-18T11:34:11;23.70;99.90
67974;DHT22;54756;51.140;6.952;2023-09-18T11:36:14;23.70;99.90
67974;DHT22;54756;51.140;6.952;2023-09-18T11:38:15;23.70;99.90
67974;DHT22;54756;51.140;6.952;2023-09-18T11:40:33;23.80;99.90
67974;DHT22;54756;51.140;6.952;2023-09-18T11:43:22;23.80;99.90
67974;DHT22;54756;51.140;6.952;2023-09-18T11:45:30;23.80;99.90
67974;DHT22;54756;51.140;6.952;2023-09-18T11:47:31;23.90;99.90
67974;DHT22;54756;51.140;6.952;2023-09-18T11:49:32;23.90;99.90
67974;DHT22;54756;51.140;6.952;2023-09-18T11:51:34;24.00;99.90
67974;DHT22;54756;51.140;6.952;2023-09-18T11:53:36;23.90;99.90
67974;DHT22;54756;51.140;6.952;2023-09-18T11:55:39;24.00;99.90
67974;DHT22;54756;51.140;6.952;2023-09-18T11:57:40;24.00;99.90
67974;DHT22;54756;51.140;6.952;2023-09-18T11:59:44;24.00;99.90
67974;DHT22;54756;51.140;6.952;2023-09-18T12:01:53;24.00;99.90
67974;DHT22;54756;51.140;6.952;2023-09-18T12:03:59;24.00;99.90
67974;DHT22;54756;51.140;6.952;2023-09-18T12:06:03;24.10;99.90
67974;DHT22;54756;51.140;6.952;2023-09-18T12:08:07;24.10;99.90
67974;DHT22;54756;51.140;6.952;2023-09-18T12:10:08;24.10;99.90
67974;DHT22;54756;51.140;6.952;2023-09-18T12:12:11;24.10;99.90
67974;DHT22;54756;51.140;6.952;2023-09-18T12:14:18;24.10;99.90
67974;DHT22;54756;51.140;6.952;2023-09-18T12:16:20;24.10;99.90
67974;DHT22;54756;51.140;6.952;2023-09-18T12:18:20;24.10;99.90
67974;DHT22;54756;51.140;6.952;2023-09-18T12:20:23;24.10;99.90
67974;DHT22;54756;51.140;6.952;2023-09-18T12:22:25;24.10;99.90
67974;DHT22;54756;51.140;6.952;2023-09-18T12:24:26;24.10;99.90
67974;DHT22;54756;51.140;6.952;2023-09-18T12:26:27;24.10;99.90
67974;DHT22;54756;51.140;6.952;2023-09-18T12:28:31;24.10;99.90
67974;DHT22;54756;51.140;6.952;2023-09-18T12:30:33;24.10;99.90
67974;DHT22;54756;51.140;6.952;2023-09-18T12:32:36;24.10;99.90
67974;DHT22;54756;51.140;6.952;2023-09-18T12:34:40;24.20;99.90
67974;DHT22;54756;51.140;6.952;2023-09-18T12:36:42;24.10;99.90
67974;DHT22;54756;51.140;6.952;2023-09-18T12:38:43;24.20;99.90
67974;DHT22;54756;51.140;6.952;2023-09-18T12:40:44;24.20;99.90
67974;DHT22;54756;51.140;6.952;2023-09-18T12:42:47;24.20;99.90
67974;DHT22;54756;51.140;6.952;2023-09-18T12:44:48;24.30;99.90
67974;DHT22;54756;51.140;6.952;2023-09-18T12:46:49;24.40;99.90
67974;DHT22;54756;51.140;6.952;2023-09-18T12:48:52;24.40;99.90
67974;DHT22;54756;51.140;6.952;2023-09-18T12:50:53;24.40;99.90
67974;DHT22;54756;51.140;6.952;2023-09-18T12:55:23;24.50;99.90
67974;DHT22;54756;51.140;6.952;2023-09-18T12:57:25;24.50;99.90
67974;DHT22;54756;51.140;6.952;2023-09-18T12:59:31;24.50;99.90